Hauptseite
METAR-TAF:

METAR-TAF

Flughäfen :

Fliegerhorst Lechfeld

Lechfeld, Deutschland

Breite: 48-11N, Länge: 010-52E, Höhe: 555 m

Beobachtung

Neuester Wetterbericht von vor 1 Stunde und 2 Minuten, um 18:20 UTC
Wind 7 kt aus Ost/Nordost
Temperatur 17°C
Luftfeuchtigkeit 63%
Luftdruck 1019 hPa
Sichtweite 10 km oder mehr
Leicht bewölkt in der Höhe von 5000 ft

METAR: ETSL 051820Z 07007KT 9999 FEW050 17/10 Q1019 BLU+

Zeit: 21:22 (19:22 UTC)

Prognose

Neuester Wetterbericht von vor 9 Stunden und 11 Minuten, um 10:11 UTC
Gültige Prognose vom 05 um 11 UTC bis 05 um 20 UTC
Wind 10 kt aus Ost/Nordost
Sichtweite 10 km oder mehr
Aufgelockert bewölkt in der Höhe von 4000 ft

TAF: ETSL 051011Z 0511/0520 06010KT 9999 NSW SCT040 BY ETGL

Wetterbeobachtungen und Prognosen von mehr als 4000 Flughäfen (METAR und TAF Bericht).

Die verfügbaren Stationen werden durch gelbe und rote Markierungen auf der Karte dargestellt.

Führen Sie die Maus auf sie, um den Namen der Station zu sehen.

Darauf klicken, um die Beobachtung von Wetterbeobachtungen und Prognosen zu sehen.

Um die Karte zu ändern : klicken Sie auf den grünen Tasten mit einem schwarzen Kreuz Zum Vergrößern, auf den grünen Button mit einem Gedankenstrich zu verkleinern, oder auf die grünen Pfeile für benachbarte Karten.


METAR-TAF: